AirNav   Everest Fuels
 
 826 users online  

44PN Sports Complex of Honesdale Heliport
Honesdale, Pennsylvania, USA

GOING TO HONESDALE?


FAA INFORMATION EFFECTIVE 02 JANUARY 2020

Location

FAA Identifier: 44PN
Lat/Long: 41-33-38.2300N 075-15-56.0700W
41-33.637167N 075-15.934500W
41.5606194,-75.2655750
(estimated)
Elevation: 1361 ft. / 415 m (estimated)
Variation: 12W (2010)
From city: 1 mile NE of HONESDALE, PA
Time zone: UTC -5 (UTC -4 during Daylight Saving Time)
Zip code: 18431

Heliport Operations

Heliport use: Private use, MEDICAL.
Activation date: 02/2007
Control tower: no
ARTCC: NEW YORK CENTER
FSS: WILLIAMSPORT FLIGHT SERVICE STATION
NOTAMs facility: FDC (NOTAM-D service not available)
Attendance: UNATNDD
Wind indicator: yes
Segmented circle: no

Nearby radio navigation aids

VOR radial/distance  VOR name  Freq  Var
LVZr058/25.7WILKES-BARRE VORTAC111.6010W
HNKr187/30.2HANCOCK VOR/DME116.8011W
HUOr298/31.6HUGUENOT VOR/DME116.1011W
STWr343/38.3STILLWATER VOR/DME109.6011W
DNYr211/39.5DELANCEY VOR/DME112.1011W

Heliport Services

Runway Information

Helipad H1

Dimensions: 50 x 50 ft. / 15 x 15 m
Surface: asphalt
Latitude: 41-33.637167N
Longitude: 075-15.934500W
Elevation: 1361.0 ft.
Traffic pattern: leftleft

Heliport Ownership and Management from official FAA records

Ownership: Privately-owned
Owner: HOSPITAL ADMINISTRATOR
601 PARK STREET
HONESDALE, PA 18431
Phone 570-253-8100
Manager: WAYNE MEMORIAL HOSPITAL
601 PARK STREET
HONESDALE, PA 18431
Phone 570-253-8100

Additional Remarks

A50-H1 NUMBEROUS TWRS ALL DIRECTIONS.
FOR CD CTC WILKES-BARRE APCH AT 570-655-2084.

Instrument Procedures

There are no published instrument procedures at 44PN.

Some nearby airports with instrument procedures:

N30 - Cherry Ridge Airport (3 nm S)
70N - Spring Hill Airport (14 nm SW)
9N3 - Seamans Field Airport (22 nm W)
KMSV - Sullivan County International Airport (23 nm E)
KAVP - Wilkes-Barre/Scranton International Airport (25 nm SW)
 
Loc | Ops | Rwys | IFR | FBO | Links
Com | Nav | Svcs | Stats | Notes
Area around 44PN (Sports Complex of Honesdale Heliport)
 
Road maps at: MapQuest Bing Google
 
Aerial photo
No photo
 
Sectional chart

 
Airport distance calculator
Flying to Sports Complex of Honesdale Heliport? Find the distance to fly.

From to 44PN

Sunrise and sunset
Times for 19-Jan-2020
 Local
(UTC-5)
 Zulu
(UTC)
Morning civil twilight06:5411:54
Sunrise07:2412:24
Sunset16:5921:59
Evening civil twilight17:3022:30

Current date and time
Zulu (UTC)  19-Jan-2020 12:01:15
Local (UTC-5)  19-Jan-2020 07:01:15
 
METAR
KMSV 
23nm E 
191156Z AUTO 00000KT 9SM FEW026 SCT031 OVC049 M03/M03 A2965 RMK AO2 UPB00E12SNB12E44 SLP058 P0000 60000 70023 T10281028 11011 21056 53009 FZRANO
KAVP 
25nm SW 
191154Z 23006KT 10SM BKN038 OVC047 02/M02 A2968 RMK AO2 SLP057 60001 70013 T00171017 10017 21006 53009
KMPO 
26nm S 
191153Z AUTO 26011KT 10SM BKN040 OVC047 M01/M03 A2963 RMK AO2 UPB41E48 SLP059 P0000 60000 70010 I6000 T10111028 11011 21017 53007
KFWN 
36nm SE 
191153Z AUTO 21008KT 6SM BR OVC055 00/M02 A2969 RMK AO2 SLP058 60000 70019 T00001017 10000 21011 53012
K12N 
41nm SE 
191154Z AUTO 16003KT 01/M01 A2971 RMK AO1 SLP071 60001 70028 T00061006 10006 20000 53011
KMGJ 
45nm E 
SuperAWOS
191154Z AUTO 18004KT 2 1/2SM BR BKN060 M06/M07 A2966 RMK AO2 SLP050 P0000 60000 70036 I1000 I6001 T10611067 11022 21067 53005
TAF
KAVP 
25nm SW 
191129Z 1912/2012 26011G20KT P6SM BKN035 FM200000 31009KT P6SM BKN040
NOTAMs
Click for the latest NOTAMs
NOTAMs are issued by the DoD/FAA and will open in a separate window not controlled by AirNav.

 

 
 

Would you like to see your business listed on this page?

 If your business provides an interesting product or service to pilots, flight crews, aircraft, or users of the Sports Complex of Honesdale Heliport, you should consider listing it here.  To start the listing process, click on the button below
 
Add a business
 

Other Pages about Sports Complex of Honesdale Heliport

Update a link
 
Copyright © AirNav, LLC. All rights reserved. Privacy Policy  Contact